Time;durP1;ratioP1;P1;durP2;ratioP2;P2;SDS_P1;SDS_P2;PMS_P1;PMS_P2;Temp;Humidity;BMP_temperature;BMP_pressure;BME280_temperature;BME280_humidity;BME280_pressure;Samples;Min_cycle;Max_cycle;Signal;HPM_P1;HPM_P2
2022/07/24 00:01:35;;;;;;;13.57;9.53;;;22.20;64.70;;;;;;5024246;28;20487;-78
2022/07/24 00:04:03;;;;;;;12.73;8.60;;;22.10;64.80;;;;;;5022750;28;20503;-78
2022/07/24 00:06:31;;;;;;;13.37;9.00;;;22.10;65.00;;;;;;5021062;28;21299;-78
2022/07/24 00:09:01;;;;;;;12.00;8.83;;;22.10;65.00;;;;;;5021264;28;20469;-79
2022/07/24 00:11:29;;;;;;;11.77;8.90;;;22.00;65.00;;;;;;5025479;28;20476;-78
2022/07/24 00:13:58;;;;;;;13.73;8.90;;;22.00;65.10;;;;;;5024140;28;20489;-78
2022/07/24 00:16:26;;;;;;;12.50;8.87;;;21.90;65.30;;;;;;5025080;28;20500;-78
2022/07/24 00:18:54;;;;;;;13.20;9.13;;;21.90;65.40;;;;;;5023341;28;20526;-78
2022/07/24 00:21:22;;;;;;;12.93;8.87;;;22.00;65.50;;;;;;5009413;28;20465;-79
2022/07/24 00:23:50;;;;;;;11.87;8.87;;;22.00;65.40;;;;;;5018746;28;20488;-78
2022/07/24 00:26:19;;;;;;;11.10;8.80;;;22.00;65.40;;;;;;5024086;28;20479;-78
2022/07/24 00:28:49;;;;;;;14.30;9.27;;;22.00;65.40;;;;;;5021066;28;20464;-78
2022/07/24 00:31:18;;;;;;;12.23;8.37;;;22.00;65.50;;;;;;5022262;28;20502;-78
2022/07/24 00:33:48;;;;;;;16.73;9.40;;;22.00;65.50;;;;;;5023410;28;20466;-78
2022/07/24 00:36:16;;;;;;;12.30;8.80;;;22.00;65.40;;;;;;5023627;28;20495;-79
2022/07/24 00:38:44;;;;;;;18.47;12.70;;;21.90;65.40;;;;;;5022860;28;21035;-78
2022/07/24 00:41:13;;;;;;;23.97;14.20;;;21.90;65.40;;;;;;5029028;28;20453;-78
2022/07/24 00:44:02;;;;;;;35.57;21.13;;;21.90;65.40;;;;;;5025827;28;20488;-79
2022/07/24 00:46:30;;;;;;;37.03;25.07;;;21.90;65.30;;;;;;5028595;28;20485;-78
2022/07/24 00:48:58;;;;;;;31.67;19.77;;;21.80;65.40;;;;;;5032497;28;20459;-78
2022/07/24 00:51:27;;;;;;;24.10;15.07;;;21.80;65.40;;;;;;5030768;28;20486;-78
2022/07/24 00:53:55;;;;;;;18.37;13.77;;;21.80;65.50;;;;;;5028951;28;20464;-78
2022/07/24 00:56:23;;;;;;;17.27;12.53;;;21.70;65.60;;;;;;5029711;28;20555;-78
2022/07/24 00:58:51;;;;;;;16.77;11.70;;;21.70;65.60;;;;;;5028822;28;20466;-78
2022/07/24 01:01:21;;;;;;;13.90;11.00;;;21.70;65.70;;;;;;5027693;28;20506;-78
2022/07/24 01:03:49;;;;;;;17.70;11.37;;;21.70;65.70;;;;;;5028469;28;20472;-78
2022/07/24 01:06:17;;;;;;;16.97;11.90;;;21.70;65.70;;;;;;5029838;28;20479;-79
2022/07/24 01:08:45;;;;;;;17.10;11.93;;;21.60;65.60;;;;;;5027534;28;20467;-79
2022/07/24 01:11:13;;;;;;;18.10;11.17;;;21.60;65.80;;;;;;5027662;28;20453;-78
2022/07/24 01:13:42;;;;;;;16.30;11.73;;;21.60;65.90;;;;;;5023830;28;21242;-78
2022/07/24 01:16:11;;;;;;;16.67;11.70;;;21.60;66.00;;;;;;5007295;28;20484;-78
2022/07/24 01:18:40;;;;;;;16.20;11.70;;;21.70;66.10;;;;;;5029246;28;21225;-78
2022/07/24 01:21:10;;;;;;;13.43;9.60;;;21.70;66.20;;;;;;5026199;28;20463;-78
2022/07/24 01:23:38;;;;;;;13.00;9.20;;;21.70;66.30;;;;;;5023949;28;20480;-78
2022/07/24 01:26:07;;;;;;;13.10;10.23;;;21.70;66.50;;;;;;5025520;28;20941;-78
2022/07/24 01:28:36;;;;;;;14.37;10.70;;;21.70;66.60;;;;;;5026611;28;21316;-78
2022/07/24 01:31:04;;;;;;;12.37;10.07;;;21.70;66.60;;;;;;5024384;28;20480;-78
2022/07/24 01:33:32;;;;;;;15.63;10.83;;;21.70;66.70;;;;;;5023628;28;20436;-78
2022/07/24 01:36:00;;;;;;;15.50;10.80;;;21.70;66.70;;;;;;5026684;28;21336;-78
2022/07/24 01:38:30;;;;;;;13.93;10.50;;;21.70;66.70;;;;;;5027731;28;20488;-78
2022/07/24 01:40:58;;;;;;;16.47;11.03;;;21.70;66.70;;;;;;5024490;28;20468;-78
2022/07/24 01:43:26;;;;;;;14.93;10.57;;;21.70;66.70;;;;;;5025800;28;20462;-78
2022/07/24 01:45:54;;;;;;;13.40;10.00;;;21.70;66.70;;;;;;5027224;28;20486;-78
2022/07/24 01:48:22;;;;;;;17.27;10.93;;;21.70;66.80;;;;;;5025798;28;20921;-78
2022/07/24 01:50:50;;;;;;;14.77;10.20;;;21.70;66.90;;;;;;5025301;28;20487;-79
2022/07/24 01:53:18;;;;;;;13.63;10.20;;;21.70;67.00;;;;;;5027307;28;20463;-78
2022/07/24 01:55:56;;;;;;;16.50;9.57;;;21.80;67.10;;;;;;5025868;28;20932;-78
2022/07/24 01:58:24;;;;;;;13.60;10.30;;;21.80;67.20;;;;;;5027454;28;20883;-78
2022/07/24 02:00:52;;;;;;;14.17;9.30;;;21.80;67.10;;;;;;5025929;28;20468;-78
2022/07/24 02:03:21;;;;;;;14.70;9.93;;;21.80;67.20;;;;;;5026657;28;20497;-78
2022/07/24 02:05:50;;;;;;;13.90;9.87;;;21.80;67.20;;;;;;5023082;28;20464;-78
2022/07/24 02:08:18;;;;;;;12.80;9.40;;;21.80;67.20;;;;;;5025394;28;20499;-78
2022/07/24 02:10:46;;;;;;;14.93;8.83;;;21.90;67.30;;;;;;5027578;28;20999;-78
2022/07/24 02:13:15;;;;;;;15.73;10.00;;;21.90;67.30;;;;;;5023780;28;20458;-79
2022/07/24 02:15:44;;;;;;;14.10;10.33;;;21.90;67.30;;;;;;5023912;28;20491;-78
2022/07/24 02:18:12;;;;;;;14.20;9.03;;;21.90;67.40;;;;;;5025343;28;20487;-78
2022/07/24 02:20:40;;;;;;;14.30;9.20;;;21.90;67.40;;;;;;5013600;28;20460;-78
2022/07/24 02:23:08;;;;;;;12.67;8.30;;;21.80;67.50;;;;;;5026608;28;20462;-78
2022/07/24 02:25:36;;;;;;;12.63;9.30;;;21.80;67.60;;;;;;5023832;28;20500;-78
2022/07/24 02:28:05;;;;;;;13.23;9.70;;;21.80;67.70;;;;;;5021451;28;20490;-79
2022/07/24 02:30:34;;;;;;;13.47;9.40;;;21.80;67.70;;;;;;5023813;28;20485;-78
2022/07/24 02:33:02;;;;;;;14.13;9.43;;;21.80;67.80;;;;;;5026946;28;20466;-78
2022/07/24 02:35:30;;;;;;;14.70;9.30;;;21.80;67.80;;;;;;5022972;28;20489;-78
2022/07/24 02:37:59;;;;;;;13.30;9.43;;;21.80;67.80;;;;;;5021471;28;20512;-78
2022/07/24 02:40:27;;;;;;;12.33;10.07;;;21.70;67.80;;;;;;5025622;28;20445;-78
2022/07/24 02:42:55;;;;;;;15.37;10.43;;;21.70;67.90;;;;;;5023660;28;20454;-78
2022/07/24 02:45:23;;;;;;;12.47;9.40;;;21.70;67.90;;;;;;5025259;28;20487;-78
2022/07/24 02:47:53;;;;;;;16.10;10.00;;;21.60;68.00;;;;;;5030276;28;20502;-78
2022/07/24 02:50:24;;;;;;;14.63;9.17;;;21.60;68.10;;;;;;5027551;28;20977;-79
2022/07/24 02:52:52;;;;;;;13.63;8.87;;;21.60;68.20;;;;;;5013654;28;20460;-78
2022/07/24 02:55:20;;;;;;;18.93;10.10;;;21.60;68.20;;;;;;5008326;28;20456;-78
2022/07/24 02:57:48;;;;;;;13.03;9.40;;;21.60;68.20;;;;;;5024256;28;20497;-78
2022/07/24 03:00:18;;;;;;;14.70;10.27;;;21.60;68.20;;;;;;5024371;28;20479;-78
2022/07/24 03:02:46;;;;;;;14.37;9.60;;;21.60;68.30;;;;;;5022758;28;20471;-78
2022/07/24 03:05:15;;;;;;;11.30;9.40;;;21.60;68.30;;;;;;5023263;28;20484;-77
2022/07/24 03:07:43;;;;;;;11.00;8.80;;;21.50;68.40;;;;;;5022644;28;20553;-77
2022/07/24 03:10:12;;;;;;;10.43;8.00;;;21.50;68.40;;;;;;5023809;28;20464;-77
2022/07/24 03:12:41;;;;;;;13.10;8.87;;;21.50;68.40;;;;;;5025444;28;20452;-77
2022/07/24 03:15:10;;;;;;;14.17;9.53;;;21.50;68.40;;;;;;5024486;28;20539;-77
2022/07/24 03:17:38;;;;;;;12.53;8.83;;;21.50;68.40;;;;;;5024354;28;20909;-77
2022/07/24 03:20:10;;;;;;;13.00;8.50;;;21.50;68.40;;;;;;5025108;28;21312;-77
2022/07/24 03:22:39;;;;;;;15.00;9.20;;;21.50;68.30;;;;;;5021095;28;20447;-78
2022/07/24 03:25:08;;;;;;;11.80;9.10;;;21.40;68.20;;;;;;5022377;28;20520;-78
2022/07/24 03:27:36;;;;;;;11.23;8.73;;;21.40;68.30;;;;;;5022021;28;20492;-78
2022/07/24 03:30:06;;;;;;;13.63;9.00;;;21.40;68.30;;;;;;5024940;28;20449;-78
2022/07/24 03:32:34;;;;;;;13.90;9.40;;;21.40;68.30;;;;;;5019689;28;20861;-78
2022/07/24 03:35:02;;;;;;;12.70;8.70;;;21.40;68.20;;;;;;5022151;28;20475;-78
2022/07/24 03:37:30;;;;;;;12.80;9.17;;;21.40;68.30;;;;;;5022403;28;20498;-78
2022/07/24 03:39:59;;;;;;;11.73;8.00;;;21.30;68.20;;;;;;5024141;28;20474;-78
2022/07/24 03:42:27;;;;;;;14.33;8.83;;;21.30;68.30;;;;;;5005712;28;20459;-78
2022/07/24 03:44:55;;;;;;;10.97;8.70;;;21.30;68.30;;;;;;5023076;28;20833;-78
2022/07/24 03:47:23;;;;;;;11.30;8.73;;;21.30;68.40;;;;;;5023274;28;20483;-78
2022/07/24 03:49:51;;;;;;;12.97;8.07;;;21.30;68.40;;;;;;5023470;28;20469;-78
2022/07/24 03:52:19;;;;;;;15.97;9.40;;;21.20;68.30;;;;;;5021807;28;20448;-78
2022/07/24 03:54:51;;;;;;;10.90;8.50;;;21.20;68.30;;;;;;5022984;28;20464;-78
2022/07/24 03:57:20;;;;;;;12.10;8.87;;;21.10;68.40;;;;;;5022013;28;20483;-78
2022/07/24 03:59:48;;;;;;;11.27;9.00;;;21.10;68.50;;;;;;5024322;28;20506;-78
2022/07/24 04:02:18;;;;;;;11.47;8.63;;;21.10;68.60;;;;;;5023148;28;20482;-78
2022/07/24 04:04:46;;;;;;;10.60;8.27;;;21.00;68.60;;;;;;5021767;28;20483;-78
2022/07/24 04:07:14;;;;;;;13.30;8.80;;;21.10;68.70;;;;;;5023542;28;20513;-78
2022/07/24 04:09:42;;;;;;;12.77;9.37;;;21.10;68.70;;;;;;5023671;28;21067;-77
2022/07/24 04:12:10;;;;;;;12.37;9.10;;;21.10;68.60;;;;;;5009030;28;20472;-77
2022/07/24 04:14:39;;;;;;;14.67;8.07;;;21.10;68.60;;;;;;5021555;28;20453;-77
2022/07/24 04:17:07;;;;;;;11.00;8.10;;;21.10;68.70;;;;;;5023979;28;20513;-78
2022/07/24 04:19:35;;;;;;;12.97;8.63;;;21.10;68.70;;;;;;5024164;28;20460;-78
2022/07/24 04:22:04;;;;;;;11.93;9.10;;;21.00;68.70;;;;;;5024178;28;20811;-78
2022/07/24 04:24:33;;;;;;;11.80;8.63;;;21.00;68.70;;;;;;5020424;28;20471;-79
2022/07/24 04:27:01;;;;;;;12.40;8.60;;;21.00;68.80;;;;;;5023114;28;20506;-79
2022/07/24 04:29:29;;;;;;;13.07;8.60;;;21.00;68.80;;;;;;5022253;28;20482;-78
2022/07/24 04:31:58;;;;;;;12.43;9.23;;;21.00;68.90;;;;;;5022154;28;20474;-79
2022/07/24 04:34:26;;;;;;;12.67;8.83;;;21.00;69.00;;;;;;5024114;28;20544;-78
2022/07/24 04:36:54;;;;;;;11.40;9.13;;;21.00;69.10;;;;;;5020627;28;20489;-78
2022/07/24 04:39:22;;;;;;;13.87;9.10;;;21.10;69.20;;;;;;5022631;28;20535;-78
2022/07/24 04:41:50;;;;;;;11.50;8.83;;;21.10;69.30;;;;;;5023491;28;20463;-77
2022/07/24 04:44:18;;;;;;;12.77;8.37;;;21.20;69.30;;;;;;5025161;28;20519;-78
2022/07/24 04:46:46;;;;;;;13.60;8.17;;;21.30;69.40;;;;;;5018576;28;21167;-78
2022/07/24 04:49:16;;;;;;;11.17;8.90;;;21.30;69.40;;;;;;5021571;28;20457;-78
2022/07/24 04:51:44;;;;;;;12.37;10.17;;;21.40;69.50;;;;;;5018897;28;20987;-78
2022/07/24 04:54:12;;;;;;;17.57;9.33;;;21.50;69.60;;;;;;5022393;28;20452;-78
2022/07/24 04:56:39;;;;;;;16.00;9.67;;;21.60;69.50;;;;;;5021901;28;20507;-78
2022/07/24 04:59:07;;;;;;;13.40;8.73;;;21.70;69.40;;;;;;5024216;28;20482;-78
2022/07/24 05:01:36;;;;;;;12.87;9.00;;;21.80;69.40;;;;;;5022855;28;20476;-78
2022/07/24 05:04:04;;;;;;;17.13;10.27;;;21.90;69.40;;;;;;5020990;28;20460;-78
2022/07/24 05:06:34;;;;;;;12.90;9.10;;;22.00;69.40;;;;;;5025063;28;20499;-78
2022/07/24 05:09:02;;;;;;;12.03;8.60;;;22.10;69.50;;;;;;5024506;28;20463;-78
2022/07/24 05:11:30;;;;;;;12.30;8.83;;;22.20;69.50;;;;;;5025060;28;20562;-78
2022/07/24 05:13:58;;;;;;;11.67;8.67;;;22.30;69.30;;;;;;5019961;28;20468;-78
2022/07/24 05:16:26;;;;;;;11.90;8.60;;;22.40;69.20;;;;;;5020913;28;20464;-78
2022/07/24 05:18:54;;;;;;;11.37;8.30;;;22.50;69.20;;;;;;5023769;28;20460;-78
2022/07/24 05:21:22;;;;;;;11.03;8.83;;;22.60;69.30;;;;;;5024917;28;20468;-78
2022/07/24 05:23:54;;;;;;;10.17;7.57;;;22.70;69.10;;;;;;5022562;28;20474;-78
2022/07/24 05:26:22;;;;;;;10.27;7.57;;;22.80;68.90;;;;;;5022022;28;20574;-78
2022/07/24 05:28:50;;;;;;;10.53;8.43;;;22.90;68.80;;;;;;5023456;28;20490;-78
2022/07/24 05:31:18;;;;;;;12.23;8.20;;;22.90;69.20;;;;;;5025870;28;20480;-78
2022/07/24 05:33:46;;;;;;;11.33;7.37;;;23.30;69.60;;;;;;5027184;28;20491;-78
2022/07/24 05:36:15;;;;;;;9.37;7.47;;;23.70;68.70;;;;;;5025964;28;20448;-78
2022/07/24 05:38:43;;;;;;;10.13;6.73;;;24.00;67.90;;;;;;5027403;28;20470;-78
2022/07/24 05:41:13;;;;;;;8.80;6.37;;;24.60;67.50;;;;;;5026087;28;20453;-79
2022/07/24 05:43:41;;;;;;;10.37;5.80;;;25.40;65.80;;;;;;5027846;28;20477;-78
2022/07/24 05:46:09;;;;;;;8.77;6.60;;;25.90;64.80;;;;;;5025462;28;20851;-79
2022/07/24 05:48:44;;;;;;;11.73;6.43;;;26.40;64.20;;;;;;5027140;28;20455;-78
2022/07/24 05:51:20;;;;;;;8.30;5.63;;;27.30;63.10;;;;;;5030699;28;20527;-78
2022/07/24 05:53:48;;;;;;;9.10;6.30;;;28.20;61.90;;;;;;5027576;28;20459;-79
2022/07/24 05:56:18;;;;;;;7.20;5.00;;;28.90;60.50;;;;;;5031337;28;20454;-79
2022/07/24 05:58:46;;;;;;;10.00;6.80;;;29.60;59.20;;;;;;5030852;28;20475;-79
2022/07/24 06:01:18;;;;;;;8.77;5.73;;;30.20;57.90;;;;;;5027448;28;20478;-79
2022/07/24 06:03:46;;;;;;;8.50;5.73;;;30.70;56.90;;;;;;5028589;28;20480;-79
2022/07/24 06:06:14;;;;;;;8.83;5.43;;;31.20;55.70;;;;;;5031350;28;20863;-80
2022/07/24 06:08:42;;;;;;;9.20;5.63;;;31.70;54.80;;;;;;5030067;28;20484;-79
2022/07/24 06:11:10;;;;;;;8.17;5.20;;;32.10;53.80;;;;;;5034377;28;20471;-79
2022/07/24 06:13:39;;;;;;;8.33;5.30;;;32.50;53.10;;;;;;5032322;28;20467;-79
2022/07/24 06:16:08;;;;;;;8.30;5.40;;;32.90;51.90;;;;;;5032281;28;20472;-78
2022/07/24 06:18:36;;;;;;;14.23;5.33;;;33.10;50.80;;;;;;5022243;28;20482;-77
2022/07/24 06:21:11;;;;;;;9.83;5.20;;;33.10;50.00;;;;;;5026663;28;20481;-79
2022/07/24 06:23:39;;;;;;;7.10;4.80;;;32.80;48.70;;;;;;5021947;28;20809;-78
2022/07/24 06:26:07;;;;;;;8.50;5.40;;;32.30;49.40;;;;;;5024841;28;20494;-78
2022/07/24 06:28:35;;;;;;;8.37;5.00;;;31.40;49.30;;;;;;5027752;28;20485;-78
2022/07/24 06:31:04;;;;;;;8.50;5.60;;;30.30;49.60;;;;;;5025013;28;20541;-78
2022/07/24 06:33:33;;;;;;;8.13;5.60;;;29.10;50.40;;;;;;5003695;28;20464;-77
2022/07/24 06:36:01;;;;;;;8.57;5.27;;;28.00;51.50;;;;;;5026119;28;20470;-78
2022/07/24 06:38:29;;;;;;;8.93;5.60;;;27.20;52.40;;;;;;5024334;28;20487;-77
2022/07/24 06:40:57;;;;;;;8.87;5.80;;;26.50;53.30;;;;;;5028255;28;20453;-78
2022/07/24 06:43:26;;;;;;;8.20;5.63;;;26.00;54.20;;;;;;5026301;28;20458;-78
2022/07/24 06:45:54;;;;;;;10.33;5.50;;;25.60;54.80;;;;;;5025168;28;20475;-78
2022/07/24 06:48:23;;;;;;;7.33;5.27;;;25.30;55.40;;;;;;5025779;28;20482;-78
2022/07/24 06:50:51;;;;;;;8.13;5.80;;;25.10;56.20;;;;;;5022693;28;20572;-78
2022/07/24 06:53:19;;;;;;;8.60;5.57;;;24.90;56.60;;;;;;5025243;28;21039;-78
2022/07/24 06:55:47;;;;;;;9.17;5.57;;;24.80;56.90;;;;;;5023768;28;20542;-78
2022/07/24 06:58:15;;;;;;;8.47;5.57;;;24.70;57.20;;;;;;5022948;28;20474;-78
2022/07/24 07:00:43;;;;;;;9.77;5.90;;;24.60;57.50;;;;;;5022833;28;21063;-77
2022/07/24 07:03:11;;;;;;;10.10;7.00;;;24.50;57.90;;;;;;5021432;28;20466;-77
2022/07/24 07:05:41;;;;;;;8.70;6.70;;;24.60;58.10;;;;;;5024536;28;20492;-78
2022/07/24 07:08:09;;;;;;;8.50;6.10;;;24.60;58.30;;;;;;5025194;28;20507;-78
2022/07/24 07:10:37;;;;;;;11.23;6.70;;;24.50;58.60;;;;;;5025013;28;20452;-77
2022/07/24 07:13:05;;;;;;;12.60;6.20;;;24.50;58.70;;;;;;5025333;28;21183;-77
2022/07/24 07:15:33;;;;;;;10.60;5.67;;;24.50;58.90;;;;;;5021807;28;20542;-77
2022/07/24 07:18:01;;;;;;;8.40;5.30;;;24.60;59.10;;;;;;5022135;28;20500;-77
2022/07/24 07:20:28;;;;;;;9.63;6.70;;;24.60;59.20;;;;;;5022900;28;20982;-78
2022/07/24 07:22:58;;;;;;;9.80;7.07;;;24.70;59.30;;;;;;5007427;28;20911;-77
2022/07/24 07:25:26;;;;;;;8.03;5.53;;;24.70;59.40;;;;;;5024355;28;20471;-78
2022/07/24 07:27:54;;;;;;;8.30;6.53;;;24.70;59.60;;;;;;5024306;28;20482;-77
2022/07/24 07:30:22;;;;;;;8.87;6.63;;;24.70;59.70;;;;;;5010450;28;20463;-78
2022/07/24 07:32:50;;;;;;;11.10;7.27;;;24.60;59.90;;;;;;5023348;28;21333;-79
2022/07/24 07:35:19;;;;;;;9.50;6.30;;;24.70;60.00;;;;;;5025115;28;20463;-79
2022/07/24 07:37:53;;;;;;;9.40;7.40;;;24.70;60.10;;;;;;5026437;28;20470;-79
2022/07/24 07:40:23;;;;;;;9.73;7.00;;;24.70;60.30;;;;;;5015138;28;20455;-79
2022/07/24 07:42:51;;;;;;;10.53;6.90;;;24.80;60.40;;;;;;5023860;28;20458;-79
2022/07/24 07:45:19;;;;;;;9.37;6.83;;;24.80;60.40;;;;;;5023709;28;20477;-77
2022/07/24 07:47:47;;;;;;;14.03;6.63;;;24.80;60.50;;;;;;5025732;28;21003;-77
2022/07/24 07:50:15;;;;;;;10.10;6.83;;;24.90;60.60;;;;;;5015795;28;20459;-77
2022/07/24 07:52:43;;;;;;;10.97;7.83;;;24.90;60.60;;;;;;5027236;28;20951;-77
2022/07/24 07:55:11;;;;;;;10.67;7.10;;;24.90;60.70;;;;;;5028130;28;20554;-77
2022/07/24 07:57:43;;;;;;;10.20;6.83;;;24.90;60.70;;;;;;5027856;28;20491;-76
2022/07/24 08:00:31;;;;;;;12.30;6.90;;;25.00;60.70;;;;;;5025613;28;20470;-77
2022/07/24 08:02:59;;;;;;;9.53;6.50;;;25.00;60.70;;;;;;5027738;28;20823;-77
2022/07/24 08:05:27;;;;;;;11.10;7.10;;;25.10;60.70;;;;;;5025983;28;20446;-76
2022/07/24 08:07:55;;;;;;;9.27;6.70;;;25.10;60.70;;;;;;5026417;28;20492;-77
2022/07/24 08:10:23;;;;;;;9.33;7.50;;;25.10;60.70;;;;;;5027589;28;20844;-76
2022/07/24 08:12:53;;;;;;;10.90;7.33;;;25.20;60.80;;;;;;5027304;28;20818;-77
2022/07/24 08:15:21;;;;;;;12.43;7.40;;;25.20;60.80;;;;;;5026415;28;20457;-77
2022/07/24 08:17:52;;;;;;;12.83;7.70;;;25.30;60.80;;;;;;5027232;28;20475;-77
2022/07/24 08:20:20;;;;;;;10.03;7.63;;;25.30;60.80;;;;;;5027661;28;20541;-77
2022/07/24 08:22:48;;;;;;;10.63;7.50;;;25.30;60.80;;;;;;5026403;28;20468;-77
2022/07/24 08:25:17;;;;;;;11.90;7.80;;;25.30;60.80;;;;;;5027407;28;20486;-77
2022/07/24 08:27:47;;;;;;;9.40;7.30;;;25.40;60.70;;;;;;5025320;28;20505;-76
2022/07/24 08:30:16;;;;;;;9.87;7.70;;;25.40;60.80;;;;;;5026947;28;20456;-77
2022/07/24 08:32:45;;;;;;;11.07;7.60;;;25.40;60.70;;;;;;5004907;28;20457;-77
2022/07/24 08:35:14;;;;;;;9.30;7.30;;;25.50;60.70;;;;;;5023838;28;20460;-77
2022/07/24 08:37:43;;;;;;;9.80;7.00;;;25.50;60.80;;;;;;5027358;28;21242;-77
2022/07/24 08:40:13;;;;;;;9.77;7.83;;;25.60;60.80;;;;;;5028693;28;20452;-77
2022/07/24 08:42:41;;;;;;;12.60;7.97;;;25.70;60.70;;;;;;5029252;28;20528;-77
2022/07/24 08:45:10;;;;;;;9.00;7.23;;;25.80;60.50;;;;;;5027155;28;20493;-77
2022/07/24 08:47:41;;;;;;;12.43;7.37;;;25.80;60.40;;;;;;5028889;28;20478;-77
2022/07/24 08:50:11;;;;;;;11.00;6.93;;;25.90;60.20;;;;;;5020986;28;20475;-77
2022/07/24 08:52:39;;;;;;;10.57;8.43;;;26.00;60.10;;;;;;5027061;28;20453;-77
2022/07/24 08:55:13;;;;;;;9.03;7.40;;;26.00;60.10;;;;;;5028115;28;20489;-77
2022/07/24 08:57:41;;;;;;;10.20;7.47;;;26.00;60.00;;;;;;5028466;28;20568;-77
2022/07/24 09:00:10;;;;;;;9.63;7.97;;;26.10;60.00;;;;;;5019912;28;20464;-76
2022/07/24 09:02:42;;;;;;;10.30;7.60;;;26.10;59.90;;;;;;5028202;28;20511;-77
2022/07/24 09:05:10;;;;;;;11.40;7.60;;;26.10;60.00;;;;;;5029150;28;20539;-77
2022/07/24 09:07:38;;;;;;;9.33;6.83;;;26.10;59.90;;;;;;5034253;28;20554;-77
2022/07/24 09:10:08;;;;;;;12.40;8.07;;;26.20;59.80;;;;;;5033356;28;20462;-77
2022/07/24 09:12:38;;;;;;;10.13;7.40;;;26.20;59.80;;;;;;5030537;28;20460;-76
2022/07/24 09:15:13;;;;;;;11.30;7.20;;;26.20;59.70;;;;;;5032523;28;21059;-75
2022/07/24 09:17:54;;;;;;;10.10;7.00;;;26.20;59.60;;;;;;5033241;28;20478;-76
2022/07/24 09:20:23;;;;;;;11.20;7.20;;;26.30;59.60;;;;;;5031107;28;20486;-76
2022/07/24 09:22:52;;;;;;;9.70;7.50;;;26.40;59.60;;;;;;5031863;28;20482;-76
2022/07/24 09:25:21;;;;;;;10.80;7.50;;;26.50;59.50;;;;;;5031388;28;20460;-76
2022/07/24 09:27:51;;;;;;;11.40;7.57;;;26.50;59.40;;;;;;5029729;28;20493;-77
2022/07/24 09:30:26;;;;;;;9.83;7.70;;;26.60;59.30;;;;;;5026204;28;20539;-76
2022/07/24 09:32:57;;;;;;;9.57;7.20;;;26.60;59.00;;;;;;5027578;28;20943;-77
2022/07/24 09:35:32;;;;;;;10.07;7.63;;;26.70;58.90;;;;;;5014424;28;20952;-76
2022/07/24 09:38:04;;;;;;;9.27;7.00;;;26.80;58.70;;;;;;5028112;28;20461;-75
2022/07/24 09:40:34;;;;;;;9.70;6.93;;;26.80;58.60;;;;;;5030098;28;20451;-75
2022/07/24 09:43:17;;;;;;;10.73;7.43;;;26.90;58.50;;;;;;5029072;28;20466;-75
2022/07/24 09:46:00;;;;;;;9.30;6.80;;;26.90;58.20;;;;;;5020959;28;20466;-75
2022/07/24 09:48:31;;;;;;;9.67;7.27;;;26.90;58.30;;;;;;5028813;28;20488;-76
2022/07/24 09:51:01;;;;;;;11.20;7.83;;;26.90;58.20;;;;;;5029322;28;20473;-75
2022/07/24 09:53:31;;;;;;;9.37;7.27;;;26.90;58.20;;;;;;5030188;28;20453;-75
2022/07/24 09:56:04;;;;;;;13.60;8.53;;;26.90;58.20;;;;;;5022890;28;20435;-75
2022/07/24 09:58:34;;;;;;;11.77;8.17;;;26.90;58.10;;;;;;5030315;28;20476;-75
2022/07/24 10:01:03;;;;;;;10.70;7.20;;;27.00;58.00;;;;;;5029992;28;20473;-75
2022/07/24 10:03:38;;;;;;;13.80;8.33;;;27.00;57.90;;;;;;5030409;28;20447;-74
2022/07/24 10:06:09;;;;;;;12.83;7.93;;;27.00;57.90;;;;;;5028941;28;20469;-75
2022/07/24 10:08:39;;;;;;;12.33;8.50;;;27.10;57.70;;;;;;5012223;28;20486;-75
2022/07/24 10:11:08;;;;;;;10.77;8.37;;;27.10;57.60;;;;;;5030152;28;20457;-76
2022/07/24 10:13:36;;;;;;;14.10;8.60;;;27.00;57.60;;;;;;5029141;28;20457;-76
2022/07/24 10:16:30;;;;;;;16.37;8.23;;;27.00;57.60;;;;;;5029852;28;20466;-75
2022/07/24 10:19:00;;;;;;;10.23;7.83;;;27.00;57.80;;;;;;5028185;28;20544;-75
2022/07/24 10:21:31;;;;;;;9.53;7.87;;;27.10;57.70;;;;;;5030893;28;20450;-76
2022/07/24 10:24:45;;;;;;;11.30;8.80;;;27.10;57.70;;;;;;5029243;28;20935;-76
2022/07/24 10:27:26;;;;;;;9.63;7.30;;;27.10;57.60;;;;;;5027800;28;20844;-76
2022/07/24 10:29:55;;;;;;;12.67;8.37;;;27.10;57.60;;;;;;5032334;28;20481;-75
2022/07/24 10:32:24;;;;;;;9.50;7.23;;;27.20;57.70;;;;;;4999873;28;20505;-77
2022/07/24 10:35:05;;;;;;;10.47;7.63;;;27.20;57.70;;;;;;5028648;28;20512;-76
2022/07/24 10:37:42;;;;;;;10.00;7.50;;;27.30;57.60;;;;;;5027035;28;20477;-76
2022/07/24 10:40:19;;;;;;;11.40;8.40;;;27.40;57.50;;;;;;5022056;28;20469;-76
2022/07/24 10:43:08;;;;;;;13.50;8.33;;;27.40;57.40;;;;;;5028291;28;20457;-76
2022/07/24 10:45:37;;;;;;;17.50;9.10;;;27.40;57.10;;;;;;5028815;28;20905;-75
2022/07/24 10:48:32;;;;;;;11.00;8.10;;;27.50;57.30;;;;;;5009730;28;20528;-75
2022/07/24 10:51:05;;;;;;;11.00;8.47;;;27.60;57.30;;;;;;5027609;28;20492;-77
2022/07/24 10:53:45;;;;;;;12.60;7.60;;;27.60;57.10;;;;;;5028781;28;20452;-77
2022/07/24 10:56:21;;;;;;;14.93;7.63;;;27.70;57.00;;;;;;5025508;28;20461;-78
2022/07/24 10:58:58;;;;;;;12.67;8.50;;;27.70;56.80;;;;;;5032470;28;20446;-77
2022/07/24 11:01:33;;;;;;;11.73;8.63;;;27.80;56.60;;;;;;5024366;28;20481;-77
2022/07/24 11:04:04;;;;;;;11.00;8.30;;;27.80;56.50;;;;;;5014312;28;20463;-77
2022/07/24 11:06:47;;;;;;;10.73;9.00;;;27.90;56.40;;;;;;5013822;28;20466;-77
2022/07/24 11:09:17;;;;;;;10.83;7.70;;;27.90;56.20;;;;;;5006476;28;20582;-77
2022/07/24 11:12:04;;;;;;;9.40;7.50;;;28.00;56.10;;;;;;5012209;28;20457;-77
2022/07/24 11:14:50;;;;;;;11.30;7.90;;;28.00;55.80;;;;;;5013217;28;20458;-77
2022/07/24 11:18:11;;;;;;;9.50;7.63;;;28.10;55.80;;;;;;5012569;28;20476;-77
2022/07/24 11:20:39;;;;;;;14.80;7.80;;;28.10;55.80;;;;;;5014580;28;20825;-77
2022/07/24 11:23:20;;;;;;;12.10;8.07;;;28.10;55.60;;;;;;5011797;28;20459;-77
2022/07/24 11:25:50;;;;;;;11.30;8.60;;;28.20;55.20;;;;;;4995838;28;21104;-77
2022/07/24 11:28:18;;;;;;;11.33;7.57;;;28.20;55.20;;;;;;5013999;28;20476;-77
2022/07/24 11:30:47;;;;;;;11.30;7.73;;;28.30;55.10;;;;;;5013074;28;20488;-77
2022/07/24 11:33:22;;;;;;;10.70;7.90;;;28.30;55.20;;;;;;5014199;28;20456;-77
2022/07/24 11:35:50;;;;;;;9.60;7.90;;;28.40;55.10;;;;;;5013631;28;20494;-77
2022/07/24 11:38:28;;;;;;;10.97;7.90;;;28.50;55.00;;;;;;5012770;28;20559;-77
2022/07/24 11:44:45;;;;;;;10.40;8.50;;;28.60;54.60;;;;;;5011296;28;20436;-77
2022/07/24 11:47:14;;;;;;;14.80;8.10;;;28.70;54.60;;;;;;5014366;28;20488;-77
2022/07/24 11:49:44;;;;;;;8.73;7.10;;;28.70;54.50;;;;;;5013112;28;20573;-77
2022/07/24 11:52:18;;;;;;;9.63;7.23;;;28.80;54.40;;;;;;5013796;28;20448;-77
2022/07/24 11:54:48;;;;;;;9.70;8.03;;;28.80;54.20;;;;;;5012904;28;20455;-77
2022/07/24 11:57:19;;;;;;;10.83;7.57;;;29.00;54.20;;;;;;5013552;28;20474;-77
2022/07/24 12:00:11;;;;;;;10.47;8.30;;;29.00;54.10;;;;;;5006045;28;20459;-76
2022/07/24 12:02:44;;;;;;;9.30;7.63;;;29.10;53.80;;;;;;5013162;28;20469;-77
2022/07/24 12:05:12;;;;;;;10.73;7.73;;;29.10;53.70;;;;;;5014809;28;20467;-77
2022/07/24 12:07:40;;;;;;;11.40;8.33;;;29.10;53.70;;;;;;5004785;28;20499;-77
2022/07/24 12:10:10;;;;;;;8.83;7.20;;;29.10;53.60;;;;;;5008541;28;20470;-77
2022/07/24 12:12:40;;;;;;;8.67;6.93;;;29.10;53.50;;;;;;5013633;28;20448;-77
2022/07/24 12:15:11;;;;;;;10.57;7.53;;;29.10;53.50;;;;;;5013699;28;20457;-75
2022/07/24 12:18:00;;;;;;;10.57;7.67;;;29.10;53.40;;;;;;5013051;28;20526;-76
2022/07/24 12:20:29;;;;;;;10.60;7.90;;;29.10;53.40;;;;;;5001604;28;20557;-77
2022/07/24 12:22:59;;;;;;;9.90;7.80;;;29.10;53.60;;;;;;5006519;28;20447;-75
2022/07/24 12:25:30;;;;;;;9.53;7.40;;;29.10;53.50;;;;;;4997014;28;20451;-77
2022/07/24 12:28:04;;;;;;;10.00;8.30;;;29.10;53.40;;;;;;5013768;28;20793;-75
2022/07/24 12:30:35;;;;;;;10.67;8.20;;;29.10;53.20;;;;;;5015633;28;20483;-75
2022/07/24 12:33:06;;;;;;;13.47;8.60;;;29.20;53.20;;;;;;5017202;28;20504;-76
2022/07/24 12:35:36;;;;;;;13.20;7.90;;;29.20;53.10;;;;;;5016786;28;20463;-75
2022/07/24 12:38:05;;;;;;;10.73;8.20;;;29.30;53.00;;;;;;5016707;28;20470;-75
2022/07/24 12:40:36;;;;;;;8.40;6.90;;;29.30;52.90;;;;;;5017738;28;20460;-75
2022/07/24 12:43:08;;;;;;;11.47;7.87;;;29.40;52.70;;;;;;5016662;28;20451;-76
2022/07/24 12:45:36;;;;;;;11.37;7.77;;;29.30;52.60;;;;;;5013379;28;20559;-76
2022/07/24 12:48:20;;;;;;;14.23;8.03;;;29.30;52.60;;;;;;5011471;28;20988;-75
2022/07/24 12:51:09;;;;;;;11.37;7.60;;;29.30;52.60;;;;;;5010487;28;20561;-76
2022/07/24 12:53:40;;;;;;;9.40;7.07;;;29.40;52.50;;;;;;5011219;28;20433;-76
2022/07/24 12:56:14;;;;;;;9.07;7.10;;;29.40;52.50;;;;;;5025157;28;20538;-76
2022/07/24 12:58:53;;;;;;;9.43;7.80;;;29.40;52.40;;;;;;5010364;28;20462;-76